createdAt,value
2022-10-11T00:00:23.303Z,4.70
2022-10-11T00:01:23.406Z,6.50
2022-10-11T00:02:26.286Z,5.10
2022-10-11T00:03:23.264Z,5.90
2022-10-11T00:04:23.255Z,6.20
2022-10-11T00:05:23.247Z,6.50
2022-10-11T00:06:23.236Z,4.10
2022-10-11T00:07:23.191Z,4.60
2022-10-11T00:08:23.178Z,8.40
2022-10-11T00:09:23.165Z,7.90
2022-10-11T00:10:23.217Z,7.50
2022-10-11T00:11:23.134Z,4.90
2022-10-11T00:12:23.158Z,3.80
2022-10-11T00:13:23.111Z,3.60
2022-10-11T00:14:23.151Z,3.00
2022-10-11T00:15:23.141Z,3.60
2022-10-11T00:16:23.117Z,4.40
2022-10-11T00:17:23.124Z,5.90
2022-10-11T00:18:23.092Z,5.90
2022-10-11T00:19:23.118Z,3.70
2022-10-11T00:20:23.082Z,3.50
2022-10-11T00:21:23.069Z,10.20
2022-10-11T00:22:23.044Z,6.00
2022-10-11T00:23:23.045Z,5.60
2022-10-11T00:24:23.068Z,4.80
2022-10-11T00:25:23.024Z,5.60
2022-10-11T00:26:23.001Z,4.80
2022-10-11T00:27:23.054Z,3.30
2022-10-11T00:28:23.035Z,4.60
2022-10-11T00:29:22.987Z,4.60
2022-10-11T00:30:22.970Z,5.80
2022-10-11T00:31:22.950Z,7.30
2022-10-11T00:32:22.963Z,6.40
2022-10-11T00:33:22.930Z,10.80
2022-10-11T00:34:22.934Z,5.50
2022-10-11T00:35:22.919Z,4.90
2022-10-11T00:36:22.922Z,7.20
2022-10-11T00:37:22.900Z,6.20
2022-10-11T00:38:22.901Z,7.10
2022-10-11T00:39:22.889Z,3.80
2022-10-11T00:40:22.882Z,5.90
2022-10-11T00:41:22.856Z,5.50
2022-10-11T00:42:22.850Z,5.20
2022-10-11T00:43:22.878Z,8.60
2022-10-11T00:44:22.876Z,5.20
2022-10-11T00:45:22.799Z,5.40
2022-10-11T00:46:22.810Z,5.70
2022-10-11T00:47:22.790Z,5.60
2022-10-11T00:48:22.899Z,5.80
2022-10-11T00:49:22.780Z,12.10
2022-10-11T00:50:22.803Z,7.30
2022-10-11T00:51:22.753Z,5.00
2022-10-11T00:52:22.760Z,3.30
2022-10-11T00:53:22.735Z,4.20
2022-10-11T00:54:22.719Z,3.00
2022-10-11T00:55:22.715Z,3.60
2022-10-11T00:56:22.723Z,2.80
2022-10-11T00:57:22.704Z,4.60
2022-10-11T00:58:22.712Z,4.20
2022-10-11T00:59:22.683Z,4.10
2022-10-11T01:00:22.648Z,2.70
2022-10-11T01:01:22.745Z,3.50
2022-10-11T01:02:22.648Z,4.50
2022-10-11T01:03:22.603Z,4.10
2022-10-11T01:04:22.650Z,4.30
2022-10-11T01:05:30.507Z,6.30
2022-10-11T01:06:22.655Z,3.10
2022-10-11T01:07:22.578Z,3.70
2022-10-11T01:08:22.575Z,4.70
2022-10-11T01:09:22.555Z,8.00
2022-10-11T01:10:22.603Z,4.60
2022-10-11T01:11:22.511Z,5.10
2022-10-11T01:12:22.604Z,4.60
2022-10-11T01:13:22.546Z,5.50
2022-10-11T01:14:22.565Z,4.20
2022-10-11T01:15:22.486Z,3.60
2022-10-11T01:16:22.536Z,4.40
2022-10-11T01:17:22.480Z,5.70
2022-10-11T01:18:22.483Z,3.50
2022-10-11T01:19:22.472Z,3.70
2022-10-11T01:20:22.439Z,4.30
2022-10-11T01:21:22.432Z,3.20
2022-10-11T01:22:22.478Z,3.20
2022-10-11T01:23:22.417Z,3.10
2022-10-11T01:24:22.437Z,4.60
2022-10-11T01:25:22.409Z,3.80
2022-10-11T01:26:22.369Z,3.40
2022-10-11T01:27:22.390Z,5.50
2022-10-11T01:28:22.407Z,6.00
2022-10-11T01:29:22.373Z,3.20
2022-10-11T01:30:22.389Z,4.30
2022-10-11T01:31:22.352Z,3.70
2022-10-11T01:32:22.358Z,6.20
2022-10-11T01:33:22.293Z,4.00
2022-10-11T01:34:22.294Z,4.50
2022-10-11T01:35:22.399Z,3.70
2022-10-11T01:36:22.322Z,5.90
2022-10-11T01:37:22.257Z,5.20
2022-10-11T01:38:22.297Z,4.20
2022-10-11T01:39:22.279Z,5.00
2022-10-11T01:40:22.243Z,4.60
2022-10-11T01:41:22.270Z,4.70
2022-10-11T01:42:22.251Z,4.20
2022-10-11T01:43:22.203Z,5.30
2022-10-11T01:44:22.239Z,4.50
2022-10-11T01:45:22.202Z,5.20
2022-10-11T01:46:22.166Z,5.00
2022-10-11T01:47:22.178Z,4.40
2022-10-11T01:48:22.178Z,4.70
2022-10-11T01:49:22.163Z,3.10
2022-10-11T01:50:22.139Z,2.90
2022-10-11T01:51:22.110Z,4.00
2022-10-11T01:52:22.110Z,6.20
2022-10-11T01:53:22.099Z,4.10
2022-10-11T01:54:22.104Z,4.40
2022-10-11T01:55:22.062Z,5.60
2022-10-11T01:56:22.067Z,5.70
2022-10-11T01:57:22.055Z,4.50
2022-10-11T01:58:22.088Z,3.10
2022-10-11T01:59:22.043Z,4.40
2022-10-11T02:00:22.022Z,5.70
2022-10-11T02:01:22.084Z,6.40
2022-10-11T02:02:22.025Z,5.00
2022-10-11T02:03:22.007Z,7.80
2022-10-11T02:04:22.016Z,5.30
2022-10-11T02:05:22.020Z,5.40
2022-10-11T02:06:21.956Z,6.20
2022-10-11T02:07:21.963Z,5.60
2022-10-11T02:08:21.954Z,7.90
2022-10-11T02:09:21.973Z,4.70
2022-10-11T02:10:22.001Z,5.40
2022-10-11T02:11:21.908Z,4.80
2022-10-11T02:12:21.941Z,4.80
2022-10-11T02:13:21.913Z,4.50
2022-10-11T02:14:21.899Z,5.20
2022-10-11T02:15:21.864Z,6.60
2022-10-11T02:16:21.866Z,5.30
2022-10-11T02:17:21.860Z,4.20
2022-10-11T02:18:21.845Z,6.10
2022-10-11T02:19:21.845Z,5.00
2022-10-11T02:20:21.822Z,4.70
2022-10-11T02:21:21.820Z,6.10
2022-10-11T02:22:21.812Z,9.50
2022-10-11T02:23:21.801Z,7.10
2022-10-11T02:24:21.814Z,6.50
2022-10-11T02:25:21.737Z,6.20
2022-10-11T02:26:21.789Z,5.70
2022-10-11T02:27:21.796Z,6.10
2022-10-11T02:28:21.800Z,5.20
2022-10-11T02:29:21.733Z,5.50
2022-10-11T02:30:21.709Z,4.80
2022-10-11T02:31:21.699Z,5.00
2022-10-11T02:32:21.729Z,6.60
2022-10-11T02:33:21.700Z,4.40
2022-10-11T02:34:21.692Z,3.80
2022-10-11T02:35:21.698Z,4.70
2022-10-11T02:36:21.654Z,3.80
2022-10-11T02:37:21.656Z,4.40
2022-10-11T02:38:21.636Z,5.10
2022-10-11T02:39:21.615Z,3.80
2022-10-11T02:40:21.666Z,7.20
2022-10-11T02:41:21.600Z,6.10
2022-10-11T02:42:21.590Z,4.20
2022-10-11T02:43:21.596Z,3.80
2022-10-11T02:44:21.578Z,4.60
2022-10-11T02:45:21.569Z,5.70
2022-10-11T02:46:21.572Z,7.90
2022-10-11T02:47:21.547Z,13.00
2022-10-11T02:48:21.526Z,4.10
2022-10-11T02:49:21.521Z,3.80
2022-10-11T02:50:21.518Z,4.50
2022-10-11T02:51:21.506Z,5.20
2022-10-11T02:52:21.497Z,3.40
2022-10-11T02:53:21.507Z,3.00
2022-10-11T02:54:21.474Z,4.00
2022-10-11T02:55:21.477Z,4.30
2022-10-11T02:56:21.449Z,3.10
2022-10-11T02:57:21.422Z,3.10
2022-10-11T02:58:21.447Z,5.20
2022-10-11T02:59:21.450Z,4.30
2022-10-11T03:00:21.435Z,3.70
2022-10-11T03:01:21.464Z,4.40
2022-10-11T03:02:21.411Z,6.50
2022-10-11T03:03:21.367Z,7.20
2022-10-11T03:04:21.354Z,6.70
2022-10-11T03:05:21.384Z,5.10
2022-10-11T03:06:21.388Z,4.60
2022-10-11T03:07:21.350Z,4.70
2022-10-11T03:08:21.323Z,3.90
2022-10-11T03:09:21.337Z,3.50
2022-10-11T03:10:21.316Z,3.40
2022-10-11T03:11:21.276Z,4.60
2022-10-11T03:12:21.290Z,3.60
2022-10-11T03:13:21.296Z,2.70
2022-10-11T03:14:21.256Z,4.60
2022-10-11T03:15:21.266Z,3.40
2022-10-11T03:16:21.254Z,5.00
2022-10-11T03:17:36.002Z,5.40
2022-10-11T03:18:21.248Z,6.90
2022-10-11T03:19:21.215Z,4.50
2022-10-11T03:20:21.219Z,4.40
2022-10-11T03:21:21.205Z,4.30
2022-10-11T03:22:21.176Z,4.00
2022-10-11T03:23:21.196Z,4.10
2022-10-11T03:24:21.144Z,3.80
2022-10-11T03:25:21.164Z,5.10
2022-10-11T03:26:21.137Z,5.90
2022-10-11T03:27:21.121Z,4.70
2022-10-11T03:28:21.194Z,4.30
2022-10-11T03:29:21.139Z,4.70
2022-10-11T03:30:21.096Z,3.20
2022-10-11T03:31:21.139Z,4.10
2022-10-11T03:32:21.093Z,4.30
2022-10-11T03:33:21.086Z,5.50
2022-10-11T03:34:21.043Z,5.60
2022-10-11T03:35:21.070Z,6.40
2022-10-11T03:36:21.105Z,5.50
2022-10-11T03:37:21.028Z,6.90
2022-10-11T03:38:21.002Z,6.90
2022-10-11T03:39:21.010Z,6.70
2022-10-11T03:40:20.982Z,5.60
2022-10-11T03:41:20.984Z,6.00
2022-10-11T03:42:20.964Z,6.60
2022-10-11T03:43:21.001Z,7.90
2022-10-11T03:44:20.934Z,7.60
2022-10-11T03:45:20.936Z,9.70
2022-10-11T03:46:20.922Z,13.40
2022-10-11T03:47:20.917Z,10.30
2022-10-11T03:48:20.945Z,9.20
2022-10-11T03:49:20.929Z,10.50
2022-10-11T03:50:20.869Z,8.50
2022-10-11T03:51:20.903Z,7.60
2022-10-11T03:52:20.976Z,8.10
2022-10-11T03:53:20.853Z,7.40
2022-10-11T03:54:20.833Z,6.40
2022-10-11T03:55:20.830Z,8.10
2022-10-11T03:56:20.829Z,8.40
2022-10-11T03:57:20.810Z,7.70
2022-10-11T03:58:20.787Z,6.90
2022-10-11T03:59:20.802Z,8.50
2022-10-11T04:00:20.804Z,9.90
2022-10-11T04:01:20.880Z,8.10
2022-10-11T04:02:20.792Z,9.30
2022-10-11T04:03:20.745Z,7.10
2022-10-11T04:04:20.746Z,6.20
2022-10-11T04:05:20.781Z,5.90
2022-10-11T04:06:20.728Z,5.00
2022-10-11T04:07:20.714Z,6.00
2022-10-11T04:08:20.679Z,4.40
2022-10-11T04:09:20.689Z,5.00
2022-10-11T04:10:20.700Z,5.30
2022-10-11T04:11:20.678Z,3.80
2022-10-11T04:12:20.658Z,6.10
2022-10-11T04:13:20.652Z,5.30
2022-10-11T04:14:20.652Z,5.10
2022-10-11T04:15:20.650Z,5.20
2022-10-11T04:16:20.619Z,4.30
2022-10-11T04:17:20.604Z,3.90
2022-10-11T04:18:20.573Z,6.00
2022-10-11T04:19:20.578Z,4.50
2022-10-11T04:20:20.592Z,4.60
2022-10-11T04:21:20.596Z,5.50
2022-10-11T04:22:20.544Z,4.70
2022-10-11T04:23:20.559Z,5.30
2022-10-11T04:24:20.526Z,6.00
2022-10-11T04:25:20.584Z,6.60
2022-10-11T04:26:20.506Z,6.70
2022-10-11T04:27:20.524Z,8.50
2022-10-11T04:28:20.552Z,5.70
2022-10-11T04:29:20.477Z,4.80
2022-10-11T04:30:20.477Z,4.20
2022-10-11T04:31:20.463Z,5.20
2022-10-11T04:32:20.463Z,4.50
2022-10-11T04:33:20.448Z,4.30
2022-10-11T04:34:20.441Z,4.30
2022-10-11T04:35:20.451Z,5.20
2022-10-11T04:36:20.403Z,3.80
2022-10-11T04:37:20.426Z,4.30
2022-10-11T04:38:20.400Z,5.40
2022-10-11T04:39:20.387Z,5.40
2022-10-11T04:40:20.363Z,7.70
2022-10-11T04:41:20.373Z,5.50
2022-10-11T04:42:20.359Z,4.00
2022-10-11T04:43:20.360Z,6.20
2022-10-11T04:44:20.360Z,5.20
2022-10-11T04:45:20.328Z,6.20
2022-10-11T04:46:20.286Z,5.00
2022-10-11T04:47:20.300Z,6.70
2022-10-11T04:48:20.328Z,4.30
2022-10-11T04:49:20.310Z,4.10
2022-10-11T04:50:20.274Z,4.50
2022-10-11T04:51:21.132Z,4.40
2022-10-11T04:52:24.760Z,6.00
2022-10-11T04:53:20.261Z,6.80
2022-10-11T04:54:20.214Z,5.80
2022-10-11T04:55:20.216Z,5.10
2022-10-11T04:56:20.185Z,5.00
2022-10-11T04:57:20.188Z,8.60
2022-10-11T04:58:20.174Z,5.60
2022-10-11T04:59:20.164Z,6.30
2022-10-11T05:00:20.179Z,4.60
2022-10-11T05:01:20.188Z,5.40
2022-10-11T05:02:20.258Z,4.30
2022-10-11T05:03:20.108Z,5.10
2022-10-11T05:04:20.125Z,4.90
2022-10-11T05:05:20.111Z,6.90
2022-10-11T05:06:20.125Z,7.10
2022-10-11T05:07:20.111Z,7.00
2022-10-11T05:08:20.056Z,6.40
2022-10-11T05:09:20.077Z,8.30
2022-10-11T05:10:20.037Z,6.20
2022-10-11T05:11:19.980Z,5.20
2022-10-11T05:12:20.066Z,9.30
2022-10-11T05:13:20.027Z,8.20
2022-10-11T05:14:20.037Z,10.20
2022-10-11T05:15:19.955Z,12.90
2022-10-11T05:16:19.997Z,14.60
2022-10-11T05:17:19.967Z,11.40
2022-10-11T05:18:19.904Z,11.30
2022-10-11T05:19:19.954Z,10.40
2022-10-11T05:20:19.954Z,11.20
2022-10-11T05:21:19.917Z,10.10
2022-10-11T05:22:19.927Z,10.10
2022-10-11T05:23:19.923Z,9.20
2022-10-11T05:24:19.874Z,12.60
2022-10-11T05:25:19.868Z,13.00
2022-10-11T05:26:19.856Z,12.60
2022-10-11T05:27:19.878Z,10.20
2022-10-11T05:28:19.891Z,16.20
2022-10-11T05:29:19.845Z,13.60
2022-10-11T05:30:19.796Z,14.00
2022-10-11T05:31:19.793Z,8.80
2022-10-11T05:32:19.770Z,11.90
2022-10-11T05:33:19.781Z,14.60
2022-10-11T05:34:19.753Z,13.00
2022-10-11T05:35:19.752Z,13.50
2022-10-11T05:36:19.745Z,13.00
2022-10-11T05:37:19.750Z,15.00
2022-10-11T05:38:19.714Z,14.20
2022-10-11T05:39:19.698Z,12.00
2022-10-11T05:40:19.683Z,11.70
2022-10-11T05:41:19.712Z,18.10
2022-10-11T05:42:19.685Z,12.90
2022-10-11T05:43:19.710Z,11.00
2022-10-11T05:44:19.673Z,10.10
2022-10-11T05:45:19.674Z,12.40
2022-10-11T05:46:19.654Z,11.00
2022-10-11T05:47:19.644Z,8.50
2022-10-11T05:48:19.607Z,9.70
2022-10-11T05:49:19.613Z,10.60
2022-10-11T05:50:23.387Z,9.80
2022-10-11T05:51:19.583Z,10.50
2022-10-11T05:52:19.569Z,8.00
2022-10-11T05:53:19.622Z,9.80
2022-10-11T05:54:20.210Z,8.80
2022-10-11T05:55:19.571Z,9.10
2022-10-11T05:56:19.539Z,10.80
2022-10-11T05:57:19.522Z,15.70
2022-10-11T05:58:19.519Z,14.20
2022-10-11T05:59:19.530Z,12.90
2022-10-11T06:00:19.472Z,13.50
2022-10-11T06:01:19.530Z,12.80
2022-10-11T06:02:19.454Z,17.40
2022-10-11T06:03:19.456Z,16.80
2022-10-11T06:04:19.573Z,19.60
2022-10-11T06:05:23.046Z,19.60
2022-10-11T06:06:35.430Z,18.40
2022-10-11T06:07:19.551Z,12.00
2022-10-11T06:08:23.609Z,14.60
2022-10-11T06:09:19.631Z,18.20
2022-10-11T06:10:19.830Z,15.10
2022-10-11T06:11:19.372Z,19.40
2022-10-11T06:12:19.355Z,16.40
2022-10-11T06:13:19.353Z,26.00
2022-10-11T06:14:19.349Z,18.90
2022-10-11T06:15:19.327Z,19.70
2022-10-11T06:16:19.383Z,16.20
2022-10-11T06:17:19.325Z,13.50
2022-10-11T06:18:19.289Z,14.70
2022-10-11T06:19:19.290Z,11.60
2022-10-11T06:20:19.272Z,17.10
2022-10-11T06:21:19.422Z,23.30
2022-10-11T06:22:19.253Z,35.40
2022-10-11T06:23:19.264Z,13.30
2022-10-11T06:24:19.232Z,20.70
2022-10-11T06:25:19.238Z,21.70
2022-10-11T06:26:19.219Z,23.90
2022-10-11T06:27:19.221Z,13.20
2022-10-11T06:28:19.318Z,17.30
2022-10-11T06:29:19.182Z,56.70
2022-10-11T06:30:19.194Z,14.00
2022-10-11T06:31:19.161Z,43.30
2022-10-11T06:32:19.137Z,62.40
2022-10-11T06:33:19.142Z,18.90
2022-10-11T06:34:19.138Z,65.80
2022-10-11T06:35:19.137Z,24.80
2022-10-11T06:36:19.118Z,31.40
2022-10-11T06:37:19.090Z,15.50
2022-10-11T06:38:19.103Z,15.70
2022-10-11T06:39:19.108Z,20.00
2022-10-11T06:40:19.066Z,290.70
2022-10-11T06:41:19.092Z,49.50
2022-10-11T06:42:19.047Z,81.60
2022-10-11T06:43:19.037Z,25.90
2022-10-11T06:44:19.063Z,184.80
2022-10-11T06:45:19.018Z,19.70
2022-10-11T06:46:19.025Z,22.70
2022-10-11T06:47:19.007Z,147.80
2022-10-11T06:48:19.183Z,20.10
2022-10-11T06:49:23.087Z,53.50
2022-10-11T06:50:34.900Z,20.60
2022-10-11T06:51:18.973Z,67.80
2022-10-11T06:52:18.926Z,465.90
2022-10-11T06:53:18.941Z,146.90
2022-10-11T06:54:18.960Z,261.70
2022-10-11T06:55:18.957Z,168.90
2022-10-11T06:56:18.893Z,299.50
2022-10-11T06:57:18.904Z,152.10
2022-10-11T06:58:18.905Z,290.20
2022-10-11T06:59:18.906Z,428.40
2022-10-11T07:00:18.884Z,194.10
2022-10-11T07:01:19.050Z,183.80
2022-10-11T07:02:18.845Z,27.00
2022-10-11T07:03:18.834Z,21.10
2022-10-11T07:04:18.813Z,22.80
2022-10-11T07:05:18.814Z,436.40
2022-10-11T07:06:18.788Z,488.30
2022-10-11T07:07:18.805Z,422.90
2022-10-11T07:08:18.772Z,462.30
2022-10-11T07:09:18.763Z,281.80
2022-10-11T07:10:18.783Z,477.10
2022-10-11T07:11:18.771Z,179.90
2022-10-11T07:12:18.754Z,332.00
2022-10-11T07:13:18.740Z,77.40
2022-10-11T07:14:18.705Z,36.20
2022-10-11T07:15:18.760Z,26.60
2022-10-11T07:16:18.713Z,65.00
2022-10-11T07:17:18.715Z,23.60
2022-10-11T07:18:18.691Z,65.60
2022-10-11T07:19:18.654Z,121.40
2022-10-11T07:20:18.636Z,47.90
2022-10-11T07:21:18.680Z,38.20
2022-10-11T07:22:18.620Z,120.10
2022-10-11T07:23:18.654Z,54.90
2022-10-11T07:24:18.599Z,47.60
2022-10-11T07:25:18.591Z,53.70
2022-10-11T07:26:18.610Z,47.60
2022-10-11T07:27:18.601Z,44.80
2022-10-11T07:28:18.610Z,55.10
2022-10-11T07:29:18.581Z,59.40
2022-10-11T07:30:18.542Z,50.30
2022-10-11T07:31:18.557Z,51.10
2022-10-11T07:32:18.556Z,58.10
2022-10-11T07:33:18.525Z,54.50
2022-10-11T07:34:18.500Z,53.50
2022-10-11T07:35:18.494Z,44.50
2022-10-11T07:36:18.499Z,49.60
2022-10-11T07:37:18.483Z,47.70
2022-10-11T07:38:18.493Z,52.50
2022-10-11T07:39:18.472Z,51.10
2022-10-11T07:40:18.467Z,48.90
2022-10-11T07:41:18.426Z,50.90
2022-10-11T07:42:18.465Z,60.80
2022-10-11T07:43:18.429Z,48.10
2022-10-11T07:44:18.400Z,48.00
2022-10-11T07:45:18.403Z,46.70
2022-10-11T07:46:18.410Z,59.60
2022-10-11T07:47:18.382Z,59.60
2022-10-11T07:48:18.387Z,52.00
2022-10-11T07:49:18.367Z,44.10
2022-10-11T07:50:18.351Z,44.80
2022-10-11T07:51:18.331Z,48.40
2022-10-11T07:52:18.347Z,53.10
2022-10-11T07:53:18.318Z,55.40
2022-10-11T07:54:18.354Z,51.40
2022-10-11T07:55:18.309Z,55.80
2022-10-11T07:56:18.308Z,56.60
2022-10-11T07:57:18.278Z,58.20
2022-10-11T07:58:18.277Z,60.10
2022-10-11T07:59:18.292Z,56.30
2022-10-11T08:00:18.260Z,55.70
2022-10-11T08:01:18.336Z,57.60
2022-10-11T08:02:18.250Z,51.30
2022-10-11T08:03:18.227Z,52.20
2022-10-11T08:04:18.213Z,56.50
2022-10-11T08:05:18.233Z,53.50
2022-10-11T08:06:18.241Z,54.70
2022-10-11T08:07:18.172Z,46.30
2022-10-11T08:08:18.170Z,62.30
2022-10-11T08:09:18.131Z,54.00
2022-10-11T08:10:18.151Z,51.60
2022-10-11T08:11:18.180Z,48.00
2022-10-11T08:12:18.136Z,53.50
2022-10-11T08:13:18.109Z,52.50
2022-10-11T08:14:18.112Z,47.30
2022-10-11T08:15:18.099Z,46.10
2022-10-11T08:16:18.102Z,45.90
2022-10-11T08:17:18.065Z,49.00
2022-10-11T08:18:18.065Z,43.80
2022-10-11T08:19:18.058Z,51.90
2022-10-11T08:20:18.039Z,44.40
2022-10-11T08:21:18.026Z,45.30
2022-10-11T08:22:18.039Z,44.20
2022-10-11T08:23:18.009Z,37.60
2022-10-11T08:24:18.022Z,38.40
2022-10-11T08:25:17.982Z,36.10
2022-10-11T08:26:18.002Z,33.50
2022-10-11T08:27:17.977Z,31.10
2022-10-11T08:28:18.205Z,35.90
2022-10-11T08:29:17.942Z,38.00
2022-10-11T08:30:17.917Z,36.70
2022-10-11T08:31:17.965Z,37.40
2022-10-11T08:32:17.924Z,32.80
2022-10-11T08:33:17.906Z,35.90
2022-10-11T08:34:18.657Z,36.90
2022-10-11T08:35:17.887Z,34.80
2022-10-11T08:36:17.876Z,30.90
2022-10-11T08:37:17.863Z,33.40
2022-10-11T08:38:17.864Z,29.70
2022-10-11T08:39:17.903Z,33.80
2022-10-11T08:40:17.863Z,28.20
2022-10-11T08:41:17.835Z,27.40
2022-10-11T08:42:17.808Z,29.20
2022-10-11T08:43:17.817Z,28.60
2022-10-11T08:44:17.815Z,23.10
2022-10-11T08:45:17.780Z,25.20
2022-10-11T08:46:17.773Z,25.60
2022-10-11T08:47:17.751Z,25.20
2022-10-11T08:48:17.766Z,29.10
2022-10-11T08:49:17.745Z,27.50
2022-10-11T08:50:17.732Z,22.70
2022-10-11T08:51:17.733Z,26.10
2022-10-11T08:52:17.720Z,22.50
2022-10-11T08:53:17.683Z,23.60
2022-10-11T08:54:17.705Z,21.00
2022-10-11T08:55:17.669Z,23.60
2022-10-11T08:56:17.671Z,26.20
2022-10-11T08:57:17.715Z,20.00
2022-10-11T08:58:17.676Z,23.70
2022-10-11T08:59:17.631Z,22.70
2022-10-11T09:00:17.626Z,23.60
2022-10-11T09:01:17.670Z,17.50
2022-10-11T09:02:17.615Z,22.10
2022-10-11T09:03:17.590Z,23.60
2022-10-11T09:04:17.580Z,23.00
2022-10-11T09:05:17.757Z,26.10
2022-10-11T09:06:17.638Z,20.60
2022-10-11T09:07:17.522Z,24.20
2022-10-11T09:08:17.578Z,22.40
2022-10-11T09:09:17.539Z,26.30
2022-10-11T09:10:17.520Z,19.40
2022-10-11T09:11:17.521Z,23.40
2022-10-11T09:12:17.502Z,19.70
2022-10-11T09:13:17.478Z,19.80
2022-10-11T09:14:17.487Z,20.00
2022-10-11T09:15:17.457Z,19.60
2022-10-11T09:16:17.484Z,19.30
2022-10-11T09:17:17.452Z,19.80
2022-10-11T09:18:17.445Z,17.50
2022-10-11T09:19:17.410Z,23.80
2022-10-11T09:20:17.436Z,18.90
2022-10-11T09:21:17.428Z,17.20
2022-10-11T09:22:17.424Z,19.00
2022-10-11T09:23:17.370Z,17.00
2022-10-11T09:24:17.366Z,19.70
2022-10-11T09:25:17.358Z,20.00
2022-10-11T09:26:17.354Z,19.50
2022-10-11T09:27:17.429Z,18.80
2022-10-11T09:28:17.465Z,15.70
2022-10-11T09:29:17.427Z,19.50
2022-10-11T09:30:17.327Z,19.60
2022-10-11T09:31:17.367Z,21.10
2022-10-11T09:32:17.349Z,20.80
2022-10-11T09:33:17.592Z,18.40
2022-10-11T09:34:17.655Z,18.20
2022-10-11T09:35:17.380Z,19.10
2022-10-11T09:36:17.243Z,22.80
2022-10-11T09:37:17.405Z,19.10
2022-10-11T09:38:17.365Z,19.70
2022-10-11T09:39:17.399Z,18.50
2022-10-11T09:40:17.392Z,17.90
2022-10-11T09:41:17.284Z,16.00
2022-10-11T09:42:17.380Z,19.50
2022-10-11T09:43:17.337Z,13.90
2022-10-11T09:44:17.300Z,16.70
2022-10-11T09:45:17.345Z,18.20
2022-10-11T09:46:17.385Z,17.30
2022-10-11T09:47:17.289Z,18.80
2022-10-11T09:48:17.291Z,16.70
2022-10-11T09:49:17.378Z,15.40
2022-10-11T09:50:17.169Z,16.90
2022-10-11T09:51:17.195Z,18.90
2022-10-11T09:52:17.187Z,19.80
2022-10-11T09:53:17.466Z,16.40
2022-10-11T09:54:18.116Z,18.30
2022-10-11T09:55:19.729Z,19.10
2022-10-11T09:56:17.103Z,17.10
2022-10-11T09:57:17.127Z,16.10
2022-10-11T09:58:17.171Z,15.70
2022-10-11T09:59:17.090Z,15.50
2022-10-11T10:00:17.271Z,15.00
2022-10-11T10:01:17.156Z,20.10
2022-10-11T10:02:17.132Z,18.70
2022-10-11T10:03:17.194Z,19.80
2022-10-11T10:04:17.214Z,16.80
2022-10-11T10:05:16.135Z,14.60
2022-10-11T10:06:17.115Z,17.90
2022-10-11T10:07:17.109Z,19.30
2022-10-11T10:08:17.358Z,17.00
2022-10-11T10:09:17.044Z,14.50
2022-10-11T10:10:17.241Z,17.50
2022-10-11T10:11:17.032Z,18.40
2022-10-11T10:12:17.440Z,16.90
2022-10-11T10:13:16.945Z,17.40
2022-10-11T10:14:17.305Z,17.70
2022-10-11T10:15:16.867Z,19.70
2022-10-11T10:16:16.944Z,17.70
2022-10-11T10:17:17.180Z,18.90
2022-10-11T10:18:16.930Z,18.10
2022-10-11T10:19:16.975Z,17.50
2022-10-11T10:20:17.766Z,19.40
2022-10-11T10:21:17.763Z,23.30
2022-10-11T10:22:19.136Z,17.30
2022-10-11T10:23:17.892Z,14.20
2022-10-11T10:24:17.500Z,14.80
2022-10-11T10:25:20.349Z,16.10
2022-10-11T10:26:17.209Z,15.50
2022-10-11T10:27:16.970Z,15.90
2022-10-11T10:28:17.165Z,13.50
2022-10-11T10:29:17.793Z,20.00
2022-10-11T10:30:17.416Z,14.70
2022-10-11T10:31:17.091Z,18.10
2022-10-11T10:32:16.963Z,14.70
2022-10-11T10:33:17.026Z,17.80
2022-10-11T10:34:17.158Z,14.20
2022-10-11T10:35:17.636Z,18.20
2022-10-11T10:36:21.491Z,13.50
2022-10-11T10:37:16.966Z,17.20
2022-10-11T10:38:17.354Z,16.00
2022-10-11T10:39:16.891Z,15.90
2022-10-11T10:40:17.220Z,15.10
2022-10-11T10:41:17.281Z,17.20
2022-10-11T10:42:17.698Z,15.10
2022-10-11T10:43:17.025Z,14.40
2022-10-11T10:44:17.362Z,13.40
2022-10-11T10:45:20.885Z,15.40
2022-10-11T10:46:17.179Z,16.70
2022-10-11T10:47:17.699Z,18.60
2022-10-11T10:48:17.292Z,19.70
2022-10-11T10:49:48.452Z,19.10
2022-10-11T10:50:16.891Z,15.70
2022-10-11T10:51:17.290Z,15.30
2022-10-11T10:52:16.690Z,14.10
2022-10-11T10:53:16.853Z,17.00
2022-10-11T10:54:17.761Z,19.00
2022-10-11T10:55:17.548Z,15.10
2022-10-11T10:56:17.592Z,17.10
2022-10-11T10:57:18.988Z,18.00
2022-10-11T10:58:18.899Z,13.50
2022-10-11T10:59:16.886Z,16.20
2022-10-11T11:00:16.544Z,14.00
2022-10-11T11:01:24.835Z,13.10
2022-10-11T11:02:39.638Z,15.10
2022-10-11T11:03:18.256Z,15.80
2022-10-11T11:04:17.940Z,15.50
2022-10-11T11:05:18.193Z,13.10
2022-10-11T11:06:17.553Z,16.00
2022-10-11T11:07:21.930Z,16.20
2022-10-11T11:09:45.934Z,17.60
2022-10-11T11:10:47.042Z,14.50
2022-10-11T11:12:00.932Z,19.00
2022-10-11T11:12:49.286Z,19.90
2022-10-11T11:14:02.242Z,15.60
2022-10-11T11:14:46.013Z,15.80
2022-10-11T11:15:46.004Z,14.80
2022-10-11T11:16:45.928Z,12.40
2022-10-11T11:17:45.980Z,15.00
2022-10-11T11:18:45.984Z,14.20
2022-10-11T11:19:45.988Z,15.20
2022-10-11T11:20:46.035Z,17.00
2022-10-11T11:21:46.003Z,17.10
2022-10-11T11:22:45.975Z,11.80
2022-10-11T11:23:45.954Z,11.70
2022-10-11T11:24:45.868Z,11.90
2022-10-11T11:25:45.994Z,11.90
2022-10-11T11:26:45.889Z,16.40
2022-10-11T11:27:46.030Z,13.40
2022-10-11T11:28:46.151Z,15.20
2022-10-11T11:29:45.867Z,15.10
2022-10-11T11:30:45.834Z,15.10
2022-10-11T11:31:45.829Z,12.80
2022-10-11T11:32:46.042Z,15.80
2022-10-11T11:33:48.782Z,13.90
2022-10-11T11:34:45.993Z,13.40
2022-10-11T11:35:46.097Z,11.20
2022-10-11T11:36:45.830Z,12.70
2022-10-11T11:37:45.721Z,12.20
2022-10-11T11:38:45.879Z,14.70
2022-10-11T11:39:45.994Z,12.40
2022-10-11T11:40:45.833Z,14.40
2022-10-11T11:41:45.668Z,15.10
2022-10-11T11:42:45.757Z,12.50
2022-10-11T11:43:45.861Z,16.40
2022-10-11T11:44:45.689Z,11.20
2022-10-11T11:45:45.771Z,11.40
2022-10-11T11:46:45.674Z,14.50
2022-10-11T11:47:45.598Z,11.40
2022-10-11T11:48:45.675Z,13.60
2022-10-11T11:49:45.616Z,11.90
2022-10-11T11:50:45.675Z,14.90
2022-10-11T11:51:45.554Z,16.10
2022-10-11T11:52:45.590Z,17.20
2022-10-11T11:53:45.691Z,14.90
2022-10-11T11:54:45.619Z,15.60
2022-10-11T11:55:45.520Z,11.70
2022-10-11T11:56:45.570Z,19.20
2022-10-11T11:57:45.574Z,10.30
2022-10-11T11:58:45.537Z,12.90
2022-10-11T11:59:45.643Z,16.20
2022-10-11T12:00:45.725Z,12.20
2022-10-11T12:01:45.560Z,11.70
2022-10-11T12:02:45.613Z,15.20
2022-10-11T12:03:45.647Z,15.10
2022-10-11T12:04:45.475Z,10.60
2022-10-11T12:05:45.454Z,12.10
2022-10-11T12:07:11.117Z,13.40
2022-10-11T12:07:45.444Z,14.50
2022-10-11T12:08:45.418Z,14.00
2022-10-11T12:09:45.387Z,15.10
2022-10-11T12:10:45.374Z,15.60
2022-10-11T12:11:45.411Z,12.10
2022-10-11T12:12:45.405Z,11.30
2022-10-11T12:13:45.354Z,14.10
2022-10-11T12:14:45.365Z,13.90
2022-10-11T12:15:45.361Z,16.30
2022-10-11T12:16:45.341Z,10.10
2022-10-11T12:17:45.349Z,13.30
2022-10-11T12:18:45.353Z,12.30
2022-10-11T12:19:45.301Z,14.40
2022-10-11T12:20:45.319Z,16.50
2022-10-11T12:21:45.282Z,16.10
2022-10-11T12:22:45.326Z,16.00
2022-10-11T12:23:45.270Z,11.50
2022-10-11T12:24:45.274Z,15.30
2022-10-11T12:25:45.280Z,12.20
2022-10-11T12:26:45.311Z,14.20
2022-10-11T12:27:45.251Z,12.00
2022-10-11T12:28:45.282Z,14.10
2022-10-11T12:29:45.139Z,13.10
2022-10-11T12:30:45.211Z,10.60
2022-10-11T12:31:46.246Z,13.30
2022-10-11T12:32:45.124Z,12.10
2022-10-11T12:33:45.201Z,10.50
2022-10-11T12:34:45.167Z,14.50
2022-10-11T12:35:45.239Z,17.10
2022-10-11T12:36:45.162Z,11.10
2022-10-11T12:37:45.123Z,13.60
2022-10-11T12:38:45.256Z,16.10
2022-10-11T12:39:45.127Z,15.80
2022-10-11T12:40:45.239Z,14.70
2022-10-11T12:41:45.430Z,12.90
2022-10-11T12:42:45.605Z,14.80
2022-10-11T12:43:45.203Z,10.30
2022-10-11T12:44:45.379Z,15.70
2022-10-11T12:45:45.179Z,12.50
2022-10-11T12:46:45.285Z,13.40
2022-10-11T12:47:45.900Z,12.40
2022-10-11T12:48:45.081Z,13.70
2022-10-11T12:49:45.456Z,10.50
2022-10-11T12:50:45.088Z,11.10
2022-10-11T12:51:45.679Z,14.20
2022-10-11T12:52:45.142Z,15.30
2022-10-11T12:53:48.134Z,13.50
2022-10-11T12:54:45.132Z,12.80
2022-10-11T12:55:45.294Z,14.10
2022-10-11T12:56:45.210Z,12.80
2022-10-11T12:57:46.464Z,12.30
2022-10-11T12:58:45.174Z,13.60
2022-10-11T12:59:45.112Z,13.50
2022-10-11T13:00:45.334Z,13.40
2022-10-11T13:01:45.229Z,16.50
2022-10-11T13:02:45.679Z,13.20
2022-10-11T13:03:46.043Z,12.30